aviador You're here:

KJXN Decoded Metar

JACKSON/REYNOLDS in MI, USA
Report Time2017-07-22 23:56:00
UTC Time2017-07-23 00:54:59
Flight Rules vfr VFR
Wind290° at 06 kt
W.Decomp.*RWY 32: 5.4 kt HW 2.5 kt LCW
RWY 24: 3.4 kt HW 4.9 kt RCW
W.Rank290° ranks 7
Current wind is below 290° avg. (7.9)
Visibility9999 m
Phenomena:N/A
Clouds:Few 033 Hf
Broken 049 Hf
Expected CloudBase > 2,000 ft AGL from Temp-Dew spread
Ceiling4,900 ft
Temp26°C (ISA +13)
Dew Point21°C (74% RH)
QNH1009 hPa
Density Alt2,966 ft
Elevation1,001 ft
Report Wrong Elevation
Raw Report
KJXN 222356Z 29006KT 10SM FEW033 BKN049 26/21 A2979 RMK AO2 SLP080
T02610206 10294 20256 53002=

Extra information for KJXN:More info

Metar Taf Metar & Taf Last 4 Metars F.Rules Stats Wind Profile Meteogram Temp Stats Airport Information Weather charts Add Link Nearby VenuesMetar ALERT Operation Metar Decoded Social comments

AIRNAV info for KJXN